sensor_id;sensor_type;location;lat;lon;timestamp;temperature;humidity
11446;DHT22;5779;64.178;15.432;2022-08-01T00:00:16;11.10;99.90
11446;DHT22;5779;64.178;15.432;2022-08-01T00:03:03;11.00;99.90
11446;DHT22;5779;64.178;15.432;2022-08-01T00:05:49;11.10;99.90
11446;DHT22;5779;64.178;15.432;2022-08-01T00:08:37;11.20;99.90
11446;DHT22;5779;64.178;15.432;2022-08-01T00:11:24;11.30;99.90
11446;DHT22;5779;64.178;15.432;2022-08-01T00:14:11;11.30;99.90
11446;DHT22;5779;64.178;15.432;2022-08-01T00:16:57;11.20;99.90
11446;DHT22;5779;64.178;15.432;2022-08-01T00:19:44;10.90;99.90
11446;DHT22;5779;64.178;15.432;2022-08-01T00:22:31;10.90;99.90
11446;DHT22;5779;64.178;15.432;2022-08-01T00:25:19;11.00;99.90
11446;DHT22;5779;64.178;15.432;2022-08-01T00:28:06;10.50;99.90
11446;DHT22;5779;64.178;15.432;2022-08-01T00:30:53;10.70;99.90
11446;DHT22;5779;64.178;15.432;2022-08-01T00:33:40;10.70;99.90
11446;DHT22;5779;64.178;15.432;2022-08-01T00:36:26;10.60;99.90
11446;DHT22;5779;64.178;15.432;2022-08-01T00:39:13;10.50;99.90
11446;DHT22;5779;64.178;15.432;2022-08-01T00:42:05;10.50;99.90
11446;DHT22;5779;64.178;15.432;2022-08-01T00:44:53;10.50;99.90
11446;DHT22;5779;64.178;15.432;2022-08-01T00:47:39;10.50;99.90
11446;DHT22;5779;64.178;15.432;2022-08-01T00:50:26;10.60;99.90
11446;DHT22;5779;64.178;15.432;2022-08-01T00:53:13;10.70;99.90
11446;DHT22;5779;64.178;15.432;2022-08-01T00:56:00;10.70;99.90
11446;DHT22;5779;64.178;15.432;2022-08-01T00:58:49;10.60;99.90
11446;DHT22;5779;64.178;15.432;2022-08-01T01:01:35;10.60;99.90
11446;DHT22;5779;64.178;15.432;2022-08-01T01:04:22;10.50;99.90
11446;DHT22;5779;64.178;15.432;2022-08-01T01:07:13;10.60;99.90
11446;DHT22;5779;64.178;15.432;2022-08-01T01:10:11;10.70;99.90
11446;DHT22;5779;64.178;15.432;2022-08-01T01:13:18;10.60;99.90
11446;DHT22;5779;64.178;15.432;2022-08-01T01:16:11;10.40;99.90
11446;DHT22;5779;64.178;15.432;2022-08-01T01:19:01;10.40;99.90
11446;DHT22;5779;64.178;15.432;2022-08-01T01:22:01;10.50;99.90
11446;DHT22;5779;64.178;15.432;2022-08-01T01:25:09;10.30;99.90
11446;DHT22;5779;64.178;15.432;2022-08-01T01:28:09;10.20;99.90
11446;DHT22;5779;64.178;15.432;2022-08-01T01:31:00;10.40;99.90
11446;DHT22;5779;64.178;15.432;2022-08-01T01:33:49;10.30;99.90
11446;DHT22;5779;64.178;15.432;2022-08-01T01:36:38;10.20;99.90
11446;DHT22;5779;64.178;15.432;2022-08-01T01:39:27;10.20;99.90
11446;DHT22;5779;64.178;15.432;2022-08-01T01:42:16;10.40;99.90
11446;DHT22;5779;64.178;15.432;2022-08-01T01:45:04;10.50;99.90
11446;DHT22;5779;64.178;15.432;2022-08-01T01:47:53;10.50;99.90
11446;DHT22;5779;64.178;15.432;2022-08-01T01:50:41;10.50;99.90
11446;DHT22;5779;64.178;15.432;2022-08-01T01:53:29;10.30;99.90
11446;DHT22;5779;64.178;15.432;2022-08-01T01:56:19;10.30;99.90
11446;DHT22;5779;64.178;15.432;2022-08-01T01:59:06;10.30;99.90
11446;DHT22;5779;64.178;15.432;2022-08-01T02:01:53;10.40;99.90
11446;DHT22;5779;64.178;15.432;2022-08-01T02:04:44;10.40;99.90
11446;DHT22;5779;64.178;15.432;2022-08-01T02:07:32;10.50;99.90
11446;DHT22;5779;64.178;15.432;2022-08-01T02:10:21;10.50;99.90
11446;DHT22;5779;64.178;15.432;2022-08-01T02:13:08;10.60;99.90
11446;DHT22;5779;64.178;15.432;2022-08-01T02:15:56;10.70;99.90
11446;DHT22;5779;64.178;15.432;2022-08-01T02:18:43;10.80;99.90
11446;DHT22;5779;64.178;15.432;2022-08-01T02:21:37;10.90;99.90
11446;DHT22;5779;64.178;15.432;2022-08-01T02:24:28;10.80;99.90
11446;DHT22;5779;64.178;15.432;2022-08-01T02:27:25;10.70;99.90
11446;DHT22;5779;64.178;15.432;2022-08-01T02:30:15;10.50;99.90
11446;DHT22;5779;64.178;15.432;2022-08-01T02:33:05;10.60;99.90
11446;DHT22;5779;64.178;15.432;2022-08-01T02:35:54;10.70;99.90
11446;DHT22;5779;64.178;15.432;2022-08-01T02:38:45;10.80;99.90
11446;DHT22;5779;64.178;15.432;2022-08-01T02:41:34;11.00;99.90
11446;DHT22;5779;64.178;15.432;2022-08-01T02:44:24;10.90;99.90
11446;DHT22;5779;64.178;15.432;2022-08-01T02:47:11;10.80;99.90
11446;DHT22;5779;64.178;15.432;2022-08-01T02:49:59;11.00;99.90
11446;DHT22;5779;64.178;15.432;2022-08-01T02:52:49;11.10;99.90
11446;DHT22;5779;64.178;15.432;2022-08-01T02:55:38;11.20;99.90
11446;DHT22;5779;64.178;15.432;2022-08-01T02:58:26;11.20;99.90
11446;DHT22;5779;64.178;15.432;2022-08-01T03:01:13;11.30;99.90
11446;DHT22;5779;64.178;15.432;2022-08-01T03:04:01;11.30;99.90
11446;DHT22;5779;64.178;15.432;2022-08-01T03:06:49;11.30;99.90
11446;DHT22;5779;64.178;15.432;2022-08-01T03:09:39;11.50;99.90
11446;DHT22;5779;64.178;15.432;2022-08-01T03:12:29;11.50;99.90
11446;DHT22;5779;64.178;15.432;2022-08-01T03:15:18;11.40;99.90
11446;DHT22;5779;64.178;15.432;2022-08-01T03:18:08;11.40;99.90
11446;DHT22;5779;64.178;15.432;2022-08-01T03:20:55;11.60;99.90
11446;DHT22;5779;64.178;15.432;2022-08-01T03:23:43;11.60;99.90
11446;DHT22;5779;64.178;15.432;2022-08-01T03:26:32;11.60;99.90
11446;DHT22;5779;64.178;15.432;2022-08-01T03:29:24;11.20;99.90
11446;DHT22;5779;64.178;15.432;2022-08-01T03:32:13;11.40;99.90
11446;DHT22;5779;64.178;15.432;2022-08-01T03:35:00;11.50;99.90
11446;DHT22;5779;64.178;15.432;2022-08-01T03:37:50;11.60;99.90
11446;DHT22;5779;64.178;15.432;2022-08-01T03:40:40;11.70;99.90
11446;DHT22;5779;64.178;15.432;2022-08-01T03:43:32;11.60;99.90
11446;DHT22;5779;64.178;15.432;2022-08-01T03:46:29;11.70;99.90
11446;DHT22;5779;64.178;15.432;2022-08-01T03:49:20;11.80;99.90
11446;DHT22;5779;64.178;15.432;2022-08-01T03:52:09;11.60;99.90
11446;DHT22;5779;64.178;15.432;2022-08-01T03:54:57;11.60;99.90
11446;DHT22;5779;64.178;15.432;2022-08-01T03:57:45;11.90;99.90
11446;DHT22;5779;64.178;15.432;2022-08-01T04:00:32;11.90;99.90
11446;DHT22;5779;64.178;15.432;2022-08-01T04:03:21;11.90;99.90
11446;DHT22;5779;64.178;15.432;2022-08-01T04:06:09;12.00;99.90
11446;DHT22;5779;64.178;15.432;2022-08-01T04:08:55;12.10;99.90
11446;DHT22;5779;64.178;15.432;2022-08-01T04:11:42;12.40;99.90
11446;DHT22;5779;64.178;15.432;2022-08-01T04:14:28;12.70;99.90
11446;DHT22;5779;64.178;15.432;2022-08-01T04:17:15;12.90;99.90
11446;DHT22;5779;64.178;15.432;2022-08-01T04:20:03;13.00;99.90
11446;DHT22;5779;64.178;15.432;2022-08-01T04:22:50;13.10;99.90
11446;DHT22;5779;64.178;15.432;2022-08-01T04:25:37;13.20;99.90
11446;DHT22;5779;64.178;15.432;2022-08-01T04:28:28;13.30;99.90
11446;DHT22;5779;64.178;15.432;2022-08-01T04:31:16;13.60;99.90
11446;DHT22;5779;64.178;15.432;2022-08-01T04:34:05;13.70;99.90
11446;DHT22;5779;64.178;15.432;2022-08-01T04:36:55;13.80;99.90
11446;DHT22;5779;64.178;15.432;2022-08-01T04:39:43;13.90;99.90
11446;DHT22;5779;64.178;15.432;2022-08-01T04:42:31;14.10;99.90
11446;DHT22;5779;64.178;15.432;2022-08-01T04:45:17;14.20;99.90
11446;DHT22;5779;64.178;15.432;2022-08-01T04:48:05;14.30;99.90
11446;DHT22;5779;64.178;15.432;2022-08-01T04:50:53;14.40;99.90
11446;DHT22;5779;64.178;15.432;2022-08-01T04:53:41;14.40;99.90
11446;DHT22;5779;64.178;15.432;2022-08-01T04:56:28;14.50;99.90
11446;DHT22;5779;64.178;15.432;2022-08-01T04:59:15;14.70;99.90
11446;DHT22;5779;64.178;15.432;2022-08-01T05:02:19;14.80;99.90
11446;DHT22;5779;64.178;15.432;2022-08-01T05:05:06;14.90;99.90
11446;DHT22;5779;64.178;15.432;2022-08-01T05:07:53;15.00;99.90
11446;DHT22;5779;64.178;15.432;2022-08-01T05:10:42;15.00;99.90
11446;DHT22;5779;64.178;15.432;2022-08-01T05:13:28;15.20;99.90
11446;DHT22;5779;64.178;15.432;2022-08-01T05:16:15;15.30;99.90
11446;DHT22;5779;64.178;15.432;2022-08-01T05:19:02;15.50;99.90
11446;DHT22;5779;64.178;15.432;2022-08-01T05:21:48;15.60;99.90
11446;DHT22;5779;64.178;15.432;2022-08-01T05:24:36;15.60;99.90
11446;DHT22;5779;64.178;15.432;2022-08-01T05:27:24;15.70;99.90
11446;DHT22;5779;64.178;15.432;2022-08-01T05:30:12;15.70;99.90
11446;DHT22;5779;64.178;15.432;2022-08-01T05:32:58;15.90;99.90
11446;DHT22;5779;64.178;15.432;2022-08-01T05:35:44;16.00;99.90
11446;DHT22;5779;64.178;15.432;2022-08-01T05:38:31;16.10;99.90
11446;DHT22;5779;64.178;15.432;2022-08-01T05:41:17;16.20;99.90
11446;DHT22;5779;64.178;15.432;2022-08-01T05:44:05;16.20;99.90
11446;DHT22;5779;64.178;15.432;2022-08-01T05:46:52;16.40;99.90
11446;DHT22;5779;64.178;15.432;2022-08-01T05:49:39;16.30;99.90
11446;DHT22;5779;64.178;15.432;2022-08-01T05:52:25;16.30;99.90
11446;DHT22;5779;64.178;15.432;2022-08-01T05:55:11;16.30;99.90
11446;DHT22;5779;64.178;15.432;2022-08-01T05:57:58;16.30;99.90
11446;DHT22;5779;64.178;15.432;2022-08-01T06:00:46;16.40;99.90
11446;DHT22;5779;64.178;15.432;2022-08-01T06:03:33;16.40;99.90
11446;DHT22;5779;64.178;15.432;2022-08-01T06:06:19;16.30;99.90
11446;DHT22;5779;64.178;15.432;2022-08-01T06:09:05;16.40;99.90
11446;DHT22;5779;64.178;15.432;2022-08-01T06:11:52;16.60;99.90
11446;DHT22;5779;64.178;15.432;2022-08-01T06:14:38;16.50;99.90
11446;DHT22;5779;64.178;15.432;2022-08-01T06:17:26;16.70;99.90
11446;DHT22;5779;64.178;15.432;2022-08-01T06:20:13;16.70;99.90
11446;DHT22;5779;64.178;15.432;2022-08-01T06:23:00;16.70;99.90
11446;DHT22;5779;64.178;15.432;2022-08-01T06:25:46;16.80;99.90
11446;DHT22;5779;64.178;15.432;2022-08-01T06:28:33;16.80;99.90
11446;DHT22;5779;64.178;15.432;2022-08-01T06:31:20;16.90;99.90
11446;DHT22;5779;64.178;15.432;2022-08-01T06:34:08;17.00;99.90
11446;DHT22;5779;64.178;15.432;2022-08-01T06:36:54;17.00;99.90
11446;DHT22;5779;64.178;15.432;2022-08-01T06:39:41;17.10;99.90
11446;DHT22;5779;64.178;15.432;2022-08-01T06:42:27;17.20;99.90
11446;DHT22;5779;64.178;15.432;2022-08-01T06:45:16;17.10;99.90
11446;DHT22;5779;64.178;15.432;2022-08-01T06:48:03;17.10;99.90
11446;DHT22;5779;64.178;15.432;2022-08-01T06:50:52;17.10;99.90
11446;DHT22;5779;64.178;15.432;2022-08-01T06:53:52;17.20;99.90
11446;DHT22;5779;64.178;15.432;2022-08-01T06:56:39;17.40;99.90
11446;DHT22;5779;64.178;15.432;2022-08-01T06:59:25;17.40;99.90
11446;DHT22;5779;64.178;15.432;2022-08-01T07:02:12;17.10;99.90
11446;DHT22;5779;64.178;15.432;2022-08-01T07:04:58;17.20;99.90
11446;DHT22;5779;64.178;15.432;2022-08-01T07:07:47;16.90;99.90
11446;DHT22;5779;64.178;15.432;2022-08-01T07:10:33;16.90;99.90
11446;DHT22;5779;64.178;15.432;2022-08-01T07:13:20;16.90;99.90
11446;DHT22;5779;64.178;15.432;2022-08-01T07:16:09;16.80;99.90
11446;DHT22;5779;64.178;15.432;2022-08-01T07:18:56;16.90;99.90
11446;DHT22;5779;64.178;15.432;2022-08-01T07:21:43;16.70;99.90
11446;DHT22;5779;64.178;15.432;2022-08-01T07:24:31;16.90;99.90
11446;DHT22;5779;64.178;15.432;2022-08-01T07:27:17;16.80;99.90
11446;DHT22;5779;64.178;15.432;2022-08-01T07:30:04;16.90;99.90
11446;DHT22;5779;64.178;15.432;2022-08-01T07:32:51;16.80;99.90
11446;DHT22;5779;64.178;15.432;2022-08-01T07:35:38;16.80;99.90
11446;DHT22;5779;64.178;15.432;2022-08-01T07:38:24;16.90;99.90
11446;DHT22;5779;64.178;15.432;2022-08-01T07:41:12;16.80;99.90
11446;DHT22;5779;64.178;15.432;2022-08-01T07:43:59;16.80;99.90
11446;DHT22;5779;64.178;15.432;2022-08-01T07:46:45;16.70;99.90
11446;DHT22;5779;64.178;15.432;2022-08-01T07:49:32;16.90;99.90
11446;DHT22;5779;64.178;15.432;2022-08-01T07:52:19;16.90;99.90
11446;DHT22;5779;64.178;15.432;2022-08-01T07:55:06;17.10;99.90
11446;DHT22;5779;64.178;15.432;2022-08-01T07:57:55;17.00;99.90
11446;DHT22;5779;64.178;15.432;2022-08-01T08:00:41;16.90;99.90
11446;DHT22;5779;64.178;15.432;2022-08-01T08:03:27;16.90;99.90
11446;DHT22;5779;64.178;15.432;2022-08-01T08:06:14;16.70;99.90
11446;DHT22;5779;64.178;15.432;2022-08-01T08:09:01;16.70;99.90
11446;DHT22;5779;64.178;15.432;2022-08-01T08:11:47;16.80;99.90
11446;DHT22;5779;64.178;15.432;2022-08-01T08:14:35;17.00;99.90
11446;DHT22;5779;64.178;15.432;2022-08-01T08:17:22;17.00;99.90
11446;DHT22;5779;64.178;15.432;2022-08-01T08:20:09;17.20;99.90
11446;DHT22;5779;64.178;15.432;2022-08-01T08:22:56;17.30;99.90
11446;DHT22;5779;64.178;15.432;2022-08-01T08:25:43;17.50;99.90
11446;DHT22;5779;64.178;15.432;2022-08-01T08:28:30;17.40;99.90
11446;DHT22;5779;64.178;15.432;2022-08-01T08:31:18;17.50;99.90
11446;DHT22;5779;64.178;15.432;2022-08-01T08:34:05;17.70;99.90
11446;DHT22;5779;64.178;15.432;2022-08-01T08:36:52;17.90;99.90
11446;DHT22;5779;64.178;15.432;2022-08-01T08:39:39;17.90;99.90
11446;DHT22;5779;64.178;15.432;2022-08-01T08:42:26;17.90;99.90
11446;DHT22;5779;64.178;15.432;2022-08-01T08:45:13;17.70;99.90
11446;DHT22;5779;64.178;15.432;2022-08-01T08:48:01;17.70;99.90
11446;DHT22;5779;64.178;15.432;2022-08-01T08:50:48;17.60;99.90
11446;DHT22;5779;64.178;15.432;2022-08-01T08:53:36;17.30;99.90
11446;DHT22;5779;64.178;15.432;2022-08-01T08:56:25;17.30;99.90
11446;DHT22;5779;64.178;15.432;2022-08-01T08:59:15;17.30;99.90
11446;DHT22;5779;64.178;15.432;2022-08-01T09:02:01;17.40;99.90
11446;DHT22;5779;64.178;15.432;2022-08-01T09:04:51;17.40;99.90
11446;DHT22;5779;64.178;15.432;2022-08-01T09:07:38;17.40;99.90
11446;DHT22;5779;64.178;15.432;2022-08-01T09:10:25;17.60;99.90
11446;DHT22;5779;64.178;15.432;2022-08-01T09:13:13;17.70;99.90
11446;DHT22;5779;64.178;15.432;2022-08-01T09:16:00;17.80;99.90
11446;DHT22;5779;64.178;15.432;2022-08-01T09:18:47;17.70;99.90
11446;DHT22;5779;64.178;15.432;2022-08-01T09:21:35;17.70;99.90
11446;DHT22;5779;64.178;15.432;2022-08-01T09:24:22;17.50;99.90
11446;DHT22;5779;64.178;15.432;2022-08-01T09:27:19;17.50;99.90
11446;DHT22;5779;64.178;15.432;2022-08-01T09:30:11;17.50;99.90
11446;DHT22;5779;64.178;15.432;2022-08-01T09:33:00;17.40;99.90
11446;DHT22;5779;64.178;15.432;2022-08-01T09:35:54;17.40;99.90
11446;DHT22;5779;64.178;15.432;2022-08-01T09:38:42;17.40;99.90
11446;DHT22;5779;64.178;15.432;2022-08-01T09:41:30;17.30;99.90
11446;DHT22;5779;64.178;15.432;2022-08-01T09:44:17;17.30;99.90
11446;DHT22;5779;64.178;15.432;2022-08-01T09:47:05;17.50;99.90
11446;DHT22;5779;64.178;15.432;2022-08-01T09:49:55;17.80;99.90
11446;DHT22;5779;64.178;15.432;2022-08-01T09:52:53;17.90;99.90
11446;DHT22;5779;64.178;15.432;2022-08-01T09:55:42;18.10;99.90
11446;DHT22;5779;64.178;15.432;2022-08-01T10:01:50;18.30;99.90
11446;DHT22;5779;64.178;15.432;2022-08-01T10:04:36;18.40;99.90
11446;DHT22;5779;64.178;15.432;2022-08-01T10:07:23;18.30;99.90
11446;DHT22;5779;64.178;15.432;2022-08-01T10:10:10;18.20;99.90
11446;DHT22;5779;64.178;15.432;2022-08-01T10:12:59;18.10;99.90
11446;DHT22;5779;64.178;15.432;2022-08-01T10:15:46;17.90;99.90
11446;DHT22;5779;64.178;15.432;2022-08-01T10:18:34;17.60;99.90
11446;DHT22;5779;64.178;15.432;2022-08-01T10:21:22;17.50;99.90
11446;DHT22;5779;64.178;15.432;2022-08-01T10:24:11;17.40;99.90
11446;DHT22;5779;64.178;15.432;2022-08-01T10:27:03;17.50;99.90
11446;DHT22;5779;64.178;15.432;2022-08-01T10:29:55;17.60;99.90
11446;DHT22;5779;64.178;15.432;2022-08-01T10:32:43;17.40;99.90
11446;DHT22;5779;64.178;15.432;2022-08-01T10:35:32;17.10;99.90
11446;DHT22;5779;64.178;15.432;2022-08-01T10:38:19;16.90;99.90
11446;DHT22;5779;64.178;15.432;2022-08-01T10:41:06;16.50;99.90
11446;DHT22;5779;64.178;15.432;2022-08-01T10:43:52;16.40;99.90
11446;DHT22;5779;64.178;15.432;2022-08-01T10:46:46;16.30;99.90
11446;DHT22;5779;64.178;15.432;2022-08-01T10:49:39;16.30;99.90
11446;DHT22;5779;64.178;15.432;2022-08-01T10:52:27;16.20;99.90
11446;DHT22;5779;64.178;15.432;2022-08-01T10:55:13;16.00;99.90
11446;DHT22;5779;64.178;15.432;2022-08-01T10:58:07;15.90;99.90
11446;DHT22;5779;64.178;15.432;2022-08-01T11:01:22;15.70;99.90
11446;DHT22;5779;64.178;15.432;2022-08-01T11:04:12;15.50;99.90
11446;DHT22;5779;64.178;15.432;2022-08-01T11:07:07;15.10;99.90
11446;DHT22;5779;64.178;15.432;2022-08-01T11:10:03;15.00;99.90
11446;DHT22;5779;64.178;15.432;2022-08-01T11:12:50;15.00;99.90
11446;DHT22;5779;64.178;15.432;2022-08-01T11:15:39;14.60;99.90
11446;DHT22;5779;64.178;15.432;2022-08-01T11:18:30;14.40;99.90
11446;DHT22;5779;64.178;15.432;2022-08-01T11:21:19;14.20;99.90
11446;DHT22;5779;64.178;15.432;2022-08-01T11:24:09;14.20;99.90
11446;DHT22;5779;64.178;15.432;2022-08-01T11:27:19;13.60;99.90
11446;DHT22;5779;64.178;15.432;2022-08-01T11:30:24;12.60;99.90
11446;DHT22;5779;64.178;15.432;2022-08-01T11:33:11;12.30;99.90
11446;DHT22;5779;64.178;15.432;2022-08-01T11:36:19;12.10;99.90
11446;DHT22;5779;64.178;15.432;2022-08-01T11:39:14;12.10;99.90
11446;DHT22;5779;64.178;15.432;2022-08-01T11:42:19;12.00;99.90
11446;DHT22;5779;64.178;15.432;2022-08-01T11:45:07;11.90;99.90
11446;DHT22;5779;64.178;15.432;2022-08-01T11:47:56;11.70;99.90
11446;DHT22;5779;64.178;15.432;2022-08-01T11:50:43;11.50;99.90
11446;DHT22;5779;64.178;15.432;2022-08-01T11:53:31;11.40;99.90
11446;DHT22;5779;64.178;15.432;2022-08-01T11:56:19;11.40;99.90
11446;DHT22;5779;64.178;15.432;2022-08-01T11:59:06;11.20;99.90
11446;DHT22;5779;64.178;15.432;2022-08-01T12:01:52;11.30;99.90
11446;DHT22;5779;64.178;15.432;2022-08-01T12:04:51;11.50;99.90
11446;DHT22;5779;64.178;15.432;2022-08-01T12:07:38;11.40;99.90
11446;DHT22;5779;64.178;15.432;2022-08-01T12:10:29;11.50;99.90
11446;DHT22;5779;64.178;15.432;2022-08-01T12:13:17;11.40;99.90
11446;DHT22;5779;64.178;15.432;2022-08-01T12:16:07;11.30;99.90
11446;DHT22;5779;64.178;15.432;2022-08-01T12:18:54;11.10;99.90
11446;DHT22;5779;64.178;15.432;2022-08-01T12:21:41;11.00;99.90
11446;DHT22;5779;64.178;15.432;2022-08-01T12:24:27;10.90;99.90
11446;DHT22;5779;64.178;15.432;2022-08-01T12:27:24;10.80;99.90
11446;DHT22;5779;64.178;15.432;2022-08-01T12:30:13;10.80;99.90
11446;DHT22;5779;64.178;15.432;2022-08-01T12:32:59;10.80;99.90
11446;DHT22;5779;64.178;15.432;2022-08-01T12:35:48;10.80;99.90
11446;DHT22;5779;64.178;15.432;2022-08-01T12:38:35;10.90;99.90
11446;DHT22;5779;64.178;15.432;2022-08-01T12:41:22;10.90;99.90
11446;DHT22;5779;64.178;15.432;2022-08-01T12:44:15;10.90;99.90
11446;DHT22;5779;64.178;15.432;2022-08-01T12:47:02;10.90;99.90
11446;DHT22;5779;64.178;15.432;2022-08-01T12:49:50;11.00;99.90
11446;DHT22;5779;64.178;15.432;2022-08-01T12:52:37;11.00;99.90
11446;DHT22;5779;64.178;15.432;2022-08-01T12:55:25;11.00;99.90
11446;DHT22;5779;64.178;15.432;2022-08-01T12:58:13;10.90;99.90
11446;DHT22;5779;64.178;15.432;2022-08-01T13:01:06;10.90;99.90
11446;DHT22;5779;64.178;15.432;2022-08-01T13:04:00;10.90;99.90
11446;DHT22;5779;64.178;15.432;2022-08-01T13:06:52;10.90;99.90
11446;DHT22;5779;64.178;15.432;2022-08-01T13:09:49;11.00;99.90
11446;DHT22;5779;64.178;15.432;2022-08-01T13:12:36;11.10;99.90
11446;DHT22;5779;64.178;15.432;2022-08-01T13:15:28;11.20;99.90
11446;DHT22;5779;64.178;15.432;2022-08-01T13:18:25;11.20;99.90
11446;DHT22;5779;64.178;15.432;2022-08-01T13:21:14;11.40;99.90
11446;DHT22;5779;64.178;15.432;2022-08-01T13:24:04;11.40;99.90
11446;DHT22;5779;64.178;15.432;2022-08-01T13:26:53;11.60;99.90
11446;DHT22;5779;64.178;15.432;2022-08-01T13:29:43;11.70;99.90
11446;DHT22;5779;64.178;15.432;2022-08-01T13:32:30;11.70;99.90
11446;DHT22;5779;64.178;15.432;2022-08-01T13:35:20;11.60;99.90
11446;DHT22;5779;64.178;15.432;2022-08-01T13:38:07;11.40;99.90
11446;DHT22;5779;64.178;15.432;2022-08-01T13:40:58;11.40;99.90
11446;DHT22;5779;64.178;15.432;2022-08-01T13:43:45;11.40;99.90
11446;DHT22;5779;64.178;15.432;2022-08-01T13:46:31;11.40;99.90
11446;DHT22;5779;64.178;15.432;2022-08-01T13:49:18;11.50;99.90
11446;DHT22;5779;64.178;15.432;2022-08-01T13:52:06;11.60;99.90
11446;DHT22;5779;64.178;15.432;2022-08-01T13:54:54;11.70;99.90
11446;DHT22;5779;64.178;15.432;2022-08-01T13:57:41;11.70;99.90
11446;DHT22;5779;64.178;15.432;2022-08-01T14:00:27;11.70;99.90
11446;DHT22;5779;64.178;15.432;2022-08-01T14:03:14;11.70;99.90
11446;DHT22;5779;64.178;15.432;2022-08-01T14:06:01;11.70;99.90
11446;DHT22;5779;64.178;15.432;2022-08-01T14:08:49;11.60;99.90
11446;DHT22;5779;64.178;15.432;2022-08-01T14:11:36;11.50;99.90
11446;DHT22;5779;64.178;15.432;2022-08-01T14:14:23;11.50;99.90
11446;DHT22;5779;64.178;15.432;2022-08-01T14:17:09;11.60;99.90
11446;DHT22;5779;64.178;15.432;2022-08-01T14:19:56;11.70;99.90
11446;DHT22;5779;64.178;15.432;2022-08-01T14:22:44;11.80;99.90
11446;DHT22;5779;64.178;15.432;2022-08-01T14:25:32;11.90;99.90
11446;DHT22;5779;64.178;15.432;2022-08-01T14:28:19;11.90;99.90
11446;DHT22;5779;64.178;15.432;2022-08-01T14:31:06;11.90;99.90
11446;DHT22;5779;64.178;15.432;2022-08-01T14:33:53;11.80;99.90
11446;DHT22;5779;64.178;15.432;2022-08-01T14:36:39;11.90;99.90
11446;DHT22;5779;64.178;15.432;2022-08-01T14:39:25;11.90;99.90
11446;DHT22;5779;64.178;15.432;2022-08-01T14:42:13;12.00;99.90
11446;DHT22;5779;64.178;15.432;2022-08-01T14:45:00;12.00;99.90
11446;DHT22;5779;64.178;15.432;2022-08-01T14:47:47;12.00;99.90
11446;DHT22;5779;64.178;15.432;2022-08-01T14:50:34;12.10;99.90
11446;DHT22;5779;64.178;15.432;2022-08-01T14:53:20;12.10;99.90
11446;DHT22;5779;64.178;15.432;2022-08-01T14:56:07;12.00;99.90
11446;DHT22;5779;64.178;15.432;2022-08-01T14:58:55;12.00;99.90
11446;DHT22;5779;64.178;15.432;2022-08-01T15:01:42;11.90;99.90
11446;DHT22;5779;64.178;15.432;2022-08-01T15:04:28;11.80;99.90
11446;DHT22;5779;64.178;15.432;2022-08-01T15:07:15;11.90;99.90
11446;DHT22;5779;64.178;15.432;2022-08-01T15:10:04;12.00;99.90
11446;DHT22;5779;64.178;15.432;2022-08-01T15:12:50;12.10;99.90
11446;DHT22;5779;64.178;15.432;2022-08-01T15:15:39;12.00;99.90
11446;DHT22;5779;64.178;15.432;2022-08-01T15:18:26;12.00;99.90
11446;DHT22;5779;64.178;15.432;2022-08-01T15:21:12;12.00;99.90
11446;DHT22;5779;64.178;15.432;2022-08-01T15:23:59;11.90;99.90
11446;DHT22;5779;64.178;15.432;2022-08-01T15:26:46;11.90;99.90
11446;DHT22;5779;64.178;15.432;2022-08-01T15:29:32;11.90;99.90
11446;DHT22;5779;64.178;15.432;2022-08-01T15:32:22;11.80;99.90
11446;DHT22;5779;64.178;15.432;2022-08-01T15:35:08;11.80;99.90
11446;DHT22;5779;64.178;15.432;2022-08-01T15:37:56;11.80;99.90
11446;DHT22;5779;64.178;15.432;2022-08-01T15:40:42;11.80;99.90
11446;DHT22;5779;64.178;15.432;2022-08-01T15:43:29;11.80;99.90
11446;DHT22;5779;64.178;15.432;2022-08-01T15:46:16;11.90;99.90
11446;DHT22;5779;64.178;15.432;2022-08-01T15:49:04;11.70;99.90
11446;DHT22;5779;64.178;15.432;2022-08-01T15:51:51;11.70;99.90
11446;DHT22;5779;64.178;15.432;2022-08-01T15:54:37;11.60;99.90
11446;DHT22;5779;64.178;15.432;2022-08-01T15:57:25;11.60;99.90
11446;DHT22;5779;64.178;15.432;2022-08-01T16:00:12;11.60;99.90
11446;DHT22;5779;64.178;15.432;2022-08-01T16:03:00;11.60;99.90
11446;DHT22;5779;64.178;15.432;2022-08-01T16:05:48;11.70;99.90
11446;DHT22;5779;64.178;15.432;2022-08-01T16:08:35;11.70;99.90
11446;DHT22;5779;64.178;15.432;2022-08-01T16:11:22;11.90;99.90
11446;DHT22;5779;64.178;15.432;2022-08-01T16:14:10;11.80;99.90
11446;DHT22;5779;64.178;15.432;2022-08-01T16:16:57;11.80;99.90
11446;DHT22;5779;64.178;15.432;2022-08-01T16:19:44;11.70;99.90
11446;DHT22;5779;64.178;15.432;2022-08-01T16:22:32;11.70;99.90
11446;DHT22;5779;64.178;15.432;2022-08-01T16:25:20;11.70;99.90
11446;DHT22;5779;64.178;15.432;2022-08-01T16:28:07;11.70;99.90
11446;DHT22;5779;64.178;15.432;2022-08-01T16:30:55;11.60;99.90
11446;DHT22;5779;64.178;15.432;2022-08-01T16:33:41;11.60;99.90
11446;DHT22;5779;64.178;15.432;2022-08-01T16:36:28;11.60;99.90
11446;DHT22;5779;64.178;15.432;2022-08-01T16:39:17;11.60;99.90
11446;DHT22;5779;64.178;15.432;2022-08-01T16:42:03;11.60;99.90
11446;DHT22;5779;64.178;15.432;2022-08-01T16:44:50;11.60;99.90
11446;DHT22;5779;64.178;15.432;2022-08-01T16:47:36;11.60;99.90
11446;DHT22;5779;64.178;15.432;2022-08-01T16:50:23;11.60;99.90
11446;DHT22;5779;64.178;15.432;2022-08-01T16:53:09;11.50;99.90
11446;DHT22;5779;64.178;15.432;2022-08-01T16:55:57;11.50;99.90
11446;DHT22;5779;64.178;15.432;2022-08-01T16:58:44;11.50;99.90
11446;DHT22;5779;64.178;15.432;2022-08-01T17:01:31;11.50;99.90
11446;DHT22;5779;64.178;15.432;2022-08-01T17:04:18;11.50;99.90
11446;DHT22;5779;64.178;15.432;2022-08-01T17:07:05;11.50;99.90
11446;DHT22;5779;64.178;15.432;2022-08-01T17:09:52;11.50;99.90
11446;DHT22;5779;64.178;15.432;2022-08-01T17:12:40;11.50;99.90
11446;DHT22;5779;64.178;15.432;2022-08-01T17:15:27;11.50;99.90
11446;DHT22;5779;64.178;15.432;2022-08-01T17:18:14;11.50;99.90
11446;DHT22;5779;64.178;15.432;2022-08-01T17:21:01;11.50;99.90
11446;DHT22;5779;64.178;15.432;2022-08-01T17:23:48;11.40;99.90
11446;DHT22;5779;64.178;15.432;2022-08-01T17:26:34;11.40;99.90
11446;DHT22;5779;64.178;15.432;2022-08-01T17:29:22;11.40;99.90
11446;DHT22;5779;64.178;15.432;2022-08-01T17:32:09;11.40;99.90
11446;DHT22;5779;64.178;15.432;2022-08-01T17:34:55;11.40;99.90
11446;DHT22;5779;64.178;15.432;2022-08-01T17:37:41;11.40;99.90
11446;DHT22;5779;64.178;15.432;2022-08-01T17:40:28;11.40;99.90
11446;DHT22;5779;64.178;15.432;2022-08-01T17:43:15;11.40;99.90
11446;DHT22;5779;64.178;15.432;2022-08-01T17:46:03;11.40;99.90